METAR Data
IDs: Format: Raw Decoded Include TAF

Data at: 1439 UTC 25 Jan 2020

METAR for:KLWD (Lamoni Muni, IA, US)
Text:KLWD 251353Z AUTO 29010KT 10SM FEW014 OVC024 M02/M04 A3004 RMK AO2 SLP185 T10221044
Temperature: -2.2°C ( 28°F)
Dewpoint: -4.4°C ( 24°F) [RH = 85%]
Pressure (altimeter):30.04 inches Hg (1017.4 mb) [Sea level pressure: 1018.5 mb]
Winds:from the WNW (290 degrees) at 12 MPH (10 knots; 5.1 m/s)
Visibility:10 or more sm (16+ km)
Ceiling:2400 feet AGL
Clouds: few clouds at 1400 feet AGL, overcast cloud deck at 2400 feet AGL
QC Flag:automated observation with no human augmentation